createdAt,value
2018-12-26T00:00:27.481Z,34.03
2018-12-26T00:02:42.592Z,36.33
2018-12-26T00:04:57.652Z,32.50
2018-12-26T00:07:12.552Z,39.47
2018-12-26T00:09:27.696Z,35.20
2018-12-26T00:11:42.365Z,31.30
2018-12-26T00:13:57.312Z,42.70
2018-12-26T00:16:12.364Z,35.03
2018-12-26T00:18:27.428Z,32.70
2018-12-26T00:20:42.204Z,42.30
2018-12-26T00:22:57.192Z,38.30
2018-12-26T00:25:12.116Z,30.83
2018-12-26T00:27:27.048Z,39.10
2018-12-26T00:29:41.948Z,39.90
2018-12-26T00:31:56.853Z,36.37
2018-12-26T00:34:11.634Z,31.67
2018-12-26T00:36:26.412Z,34.20
2018-12-26T00:38:41.743Z,37.20
2018-12-26T00:40:56.532Z,39.73
2018-12-26T00:43:11.431Z,39.03
2018-12-26T00:45:26.608Z,35.10
2018-12-26T00:47:41.820Z,31.87
2018-12-26T00:49:56.933Z,34.00
2018-12-26T00:52:11.704Z,32.07
2018-12-26T00:54:26.444Z,41.00
2018-12-26T00:56:41.381Z,33.27
2018-12-26T00:58:56.156Z,35.90
2018-12-26T01:01:11.509Z,35.93
2018-12-26T01:03:26.362Z,29.07
2018-12-26T01:05:41.375Z,36.30
2018-12-26T01:07:56.313Z,33.70
2018-12-26T01:10:11.144Z,29.63
2018-12-26T01:12:26.104Z,31.87
2018-12-26T01:14:40.640Z,34.63
2018-12-26T01:16:55.638Z,44.47
2018-12-26T01:19:10.453Z,35.50
2018-12-26T01:21:24.560Z,33.30
2018-12-26T01:23:39.736Z,40.10
2018-12-26T01:25:54.477Z,26.80
2018-12-26T01:28:09.557Z,31.87
2018-12-26T01:30:24.304Z,31.30
2018-12-26T01:32:39.237Z,29.83
2018-12-26T01:34:53.940Z,32.90
2018-12-26T01:37:09.112Z,30.00
2018-12-26T01:39:24.096Z,33.40
2018-12-26T01:41:38.735Z,32.57
2018-12-26T01:43:53.834Z,32.73
2018-12-26T01:46:08.942Z,38.60
2018-12-26T01:48:24.048Z,35.10
2018-12-26T01:50:38.980Z,31.73
2018-12-26T01:52:54.065Z,31.33
2018-12-26T01:55:08.964Z,30.67
2018-12-26T01:57:23.564Z,30.00
2018-12-26T01:59:38.512Z,31.17
2018-12-26T02:01:53.504Z,32.13
2018-12-26T02:04:08.280Z,31.80
2018-12-26T02:06:23.100Z,33.73
2018-12-26T02:08:38.117Z,32.30
2018-12-26T02:10:52.916Z,18.97
2018-12-26T02:13:07.757Z,31.70
2018-12-26T02:15:22.613Z,32.23
2018-12-26T02:17:37.609Z,34.43
2018-12-26T02:19:52.648Z,29.43
2018-12-26T02:22:07.640Z,39.80
2018-12-26T02:24:22.248Z,39.10
2018-12-26T02:26:37.527Z,31.50
2018-12-26T02:28:52.424Z,34.87
2018-12-26T02:31:07.969Z,32.50
2018-12-26T02:33:22.671Z,31.70
2018-12-26T02:35:37.608Z,27.87
2018-12-26T02:37:52.170Z,33.90
2018-12-26T02:40:07.334Z,36.77
2018-12-26T02:42:22.101Z,38.37
2018-12-26T02:44:36.812Z,32.40
2018-12-26T02:46:51.961Z,35.70
2018-12-26T02:49:06.510Z,35.97
2018-12-26T02:51:21.409Z,33.40
2018-12-26T02:53:36.314Z,26.63
2018-12-26T02:55:51.257Z,29.83
2018-12-26T02:58:06.241Z,36.60
2018-12-26T03:00:21.231Z,29.17
2018-12-26T03:02:36.269Z,40.50
2018-12-26T03:04:51.257Z,36.97
2018-12-26T03:07:06.207Z,33.20
2018-12-26T03:09:21.053Z,29.10
2018-12-26T03:11:35.976Z,28.93
2018-12-26T03:13:50.955Z,35.30
2018-12-26T03:16:05.974Z,34.70
2018-12-26T03:18:20.841Z,34.63
2018-12-26T03:20:35.858Z,34.67
2018-12-26T03:25:30.668Z,32.00
2018-12-26T03:27:45.556Z,31.77
2018-12-26T03:30:00.429Z,33.57
2018-12-26T03:32:15.614Z,39.90
2018-12-26T03:34:30.729Z,35.83
2018-12-26T03:36:45.414Z,37.20
2018-12-26T03:39:00.360Z,29.83
2018-12-26T03:41:15.257Z,40.60
2018-12-26T03:43:30.174Z,31.67
2018-12-26T03:45:44.978Z,30.23
2018-12-26T03:47:59.825Z,30.43
2018-12-26T03:50:14.852Z,35.97
2018-12-26T03:55:09.697Z,37.30
2018-12-26T03:57:24.796Z,33.17
2018-12-26T03:59:39.790Z,28.73
2018-12-26T04:01:54.500Z,31.57
2018-12-26T04:04:09.468Z,31.77
2018-12-26T04:06:24.425Z,25.97
2018-12-26T04:08:39.454Z,32.60
2018-12-26T04:10:54.234Z,41.93
2018-12-26T04:13:09.012Z,31.90
2018-12-26T04:15:23.847Z,32.23
2018-12-26T04:17:39.101Z,30.60
2018-12-26T04:19:53.637Z,26.60
2018-12-26T04:22:08.285Z,31.40
2018-12-26T04:24:23.553Z,30.73
2018-12-26T04:26:38.413Z,30.27
2018-12-26T04:28:53.420Z,29.33
2018-12-26T04:31:08.119Z,47.73
2018-12-26T04:33:23.145Z,32.33
2018-12-26T04:35:37.981Z,30.17
2018-12-26T04:37:52.845Z,34.87
2018-12-26T04:40:07.882Z,32.23
2018-12-26T04:42:22.899Z,37.50
2018-12-26T04:44:37.579Z,35.67
2018-12-26T04:46:52.484Z,35.10
2018-12-26T04:49:07.436Z,35.60
2018-12-26T04:51:22.170Z,42.73
2018-12-26T04:53:37.160Z,33.90
2018-12-26T04:55:52.018Z,32.33
2018-12-26T04:58:07.104Z,38.87
2018-12-26T05:00:21.772Z,39.40
2018-12-26T05:02:36.891Z,37.07
2018-12-26T05:04:51.531Z,41.20
2018-12-26T05:07:06.704Z,40.80
2018-12-26T05:09:21.155Z,38.87
2018-12-26T05:11:36.133Z,49.70
2018-12-26T05:13:50.997Z,42.57
2018-12-26T05:16:05.992Z,47.87
2018-12-26T05:18:20.650Z,51.60
2018-12-26T05:20:35.693Z,35.70
2018-12-26T05:22:50.665Z,51.83
2018-12-26T05:25:05.572Z,39.70
2018-12-26T05:27:20.532Z,47.73
2018-12-26T05:29:35.679Z,50.20
2018-12-26T05:31:50.218Z,38.47
2018-12-26T05:34:05.220Z,45.80
2018-12-26T05:36:20.057Z,42.93
2018-12-26T05:38:34.936Z,47.90
2018-12-26T05:40:49.776Z,53.40
2018-12-26T05:43:04.680Z,50.63
2018-12-26T05:45:19.609Z,47.87
2018-12-26T05:47:34.936Z,41.30
2018-12-26T05:49:49.772Z,50.43
2018-12-26T05:52:04.580Z,51.37
2018-12-26T05:54:19.440Z,55.60
2018-12-26T05:56:34.420Z,51.83
2018-12-26T05:58:49.448Z,63.77
2018-12-26T06:01:04.449Z,59.07
2018-12-26T06:03:19.568Z,54.20
2018-12-26T06:05:34.428Z,50.47
2018-12-26T06:07:49.348Z,56.87
2018-12-26T06:12:44.600Z,52.30
2018-12-26T06:14:59.636Z,50.37
2018-12-26T06:17:14.512Z,57.57
2018-12-26T06:19:29.596Z,52.60
2018-12-26T06:21:44.772Z,58.73
2018-12-26T06:23:59.396Z,53.47
2018-12-26T06:26:14.092Z,58.37
2018-12-26T06:28:29.041Z,64.57
2018-12-26T06:30:44.120Z,56.10
2018-12-26T06:32:58.936Z,52.77
2018-12-26T06:37:53.952Z,53.47
2018-12-26T06:40:09.136Z,54.77
2018-12-26T06:42:23.636Z,50.20
2018-12-26T06:44:38.549Z,65.30
2018-12-26T06:46:53.420Z,61.20
2018-12-26T06:49:08.385Z,55.47
2018-12-26T06:51:23.372Z,53.83
2018-12-26T06:53:38.308Z,66.10
2018-12-26T06:55:53.541Z,58.53
2018-12-26T06:58:08.261Z,56.73
2018-12-26T07:00:23.364Z,64.70
2018-12-26T07:02:37.650Z,44.40
2018-12-26T07:04:52.668Z,46.00
2018-12-26T07:07:07.731Z,63.20
2018-12-26T07:09:22.613Z,49.67
2018-12-26T07:11:37.577Z,55.43
2018-12-26T07:13:52.418Z,56.83
2018-12-26T07:16:07.728Z,49.00
2018-12-26T07:18:22.500Z,57.30
2018-12-26T07:20:37.548Z,50.20
2018-12-26T07:22:52.456Z,46.17
2018-12-26T07:25:07.400Z,48.70
2018-12-26T07:27:22.381Z,50.57
2018-12-26T07:29:37.174Z,54.57
2018-12-26T07:31:52.195Z,46.43
2018-12-26T07:34:06.990Z,47.83
2018-12-26T07:36:21.820Z,50.77
2018-12-26T07:38:36.933Z,46.43
2018-12-26T07:40:51.564Z,48.97
2018-12-26T07:43:06.672Z,51.87
2018-12-26T07:45:21.489Z,41.53
2018-12-26T07:47:36.344Z,52.87
2018-12-26T07:49:51.225Z,57.50
2018-12-26T07:52:06.325Z,54.53
2018-12-26T07:54:21.220Z,55.97
2018-12-26T07:56:35.976Z,54.07
2018-12-26T07:58:50.940Z,56.50
2018-12-26T08:01:05.888Z,55.47
2018-12-26T08:03:20.772Z,60.17
2018-12-26T08:05:35.732Z,57.30
2018-12-26T08:07:50.548Z,57.30
2018-12-26T08:10:05.316Z,53.17
2018-12-26T08:12:20.461Z,47.30
2018-12-26T08:14:35.244Z,44.70
2018-12-26T08:16:50.011Z,51.87
2018-12-26T08:19:05.012Z,44.13
2018-12-26T08:21:19.856Z,52.23
2018-12-26T08:23:33.988Z,50.50
2018-12-26T08:25:49.008Z,61.17
2018-12-26T08:28:03.972Z,55.80
2018-12-26T08:30:19.049Z,51.93
2018-12-26T08:32:34.161Z,50.10
2018-12-26T08:34:48.945Z,52.30
2018-12-26T08:37:03.982Z,43.93
2018-12-26T08:39:18.133Z,50.67
2018-12-26T08:41:33.117Z,60.50
2018-12-26T08:43:48.892Z,58.17
2018-12-26T08:46:04.012Z,54.63
2018-12-26T08:51:05.880Z,55.90
2018-12-26T08:53:20.868Z,62.70
2018-12-26T08:55:36.129Z,58.40
2018-12-26T08:57:50.876Z,68.50
2018-12-26T09:00:05.849Z,62.23
2018-12-26T09:02:20.718Z,68.40
2018-12-26T09:04:35.693Z,65.87
2018-12-26T09:06:50.626Z,69.73
2018-12-26T09:09:05.480Z,79.63
2018-12-26T09:11:20.401Z,74.77
2018-12-26T09:13:35.312Z,66.63
2018-12-26T09:15:50.280Z,73.63
2018-12-26T09:18:05.224Z,89.67
2018-12-26T09:20:20.386Z,70.63
2018-12-26T09:22:35.253Z,81.77
2018-12-26T09:24:50.090Z,77.93
2018-12-26T09:27:05.172Z,68.60
2018-12-26T09:29:20.445Z,75.73
2018-12-26T09:31:35.361Z,83.10
2018-12-26T09:33:50.100Z,79.23
2018-12-26T09:36:05.105Z,71.10
2018-12-26T09:38:20.005Z,77.97
2018-12-26T09:40:35.061Z,78.10
2018-12-26T09:42:50.084Z,74.37
2018-12-26T09:45:05.133Z,78.23
2018-12-26T09:47:19.965Z,79.07
2018-12-26T09:49:34.877Z,80.50
2018-12-26T09:51:49.808Z,79.40
2018-12-26T09:54:04.774Z,79.17
2018-12-26T09:56:19.668Z,84.13
2018-12-26T09:58:34.478Z,93.47
2018-12-26T10:00:49.341Z,98.37
2018-12-26T10:03:04.271Z,73.30
2018-12-26T10:05:19.297Z,76.67
2018-12-26T10:07:34.195Z,84.40
2018-12-26T10:09:49.008Z,92.37
2018-12-26T10:12:03.894Z,80.07
2018-12-26T10:14:18.623Z,87.73
2018-12-26T10:19:20.657Z,77.17
2018-12-26T10:21:35.564Z,82.30
2018-12-26T10:23:50.360Z,96.37
2018-12-26T10:26:05.143Z,91.40
2018-12-26T10:28:20.041Z,84.90
2018-12-26T10:30:34.913Z,97.37
2018-12-26T10:35:29.831Z,100.97
2018-12-26T10:37:44.718Z,102.87
2018-12-26T10:39:59.912Z,109.47
2018-12-26T10:42:14.567Z,90.23
2018-12-26T10:44:29.493Z,100.43
2018-12-26T10:46:44.413Z,96.70
2018-12-26T10:48:59.385Z,95.23
2018-12-26T10:51:14.380Z,86.87
2018-12-26T10:53:29.468Z,107.23
2018-12-26T10:55:44.397Z,107.87
2018-12-26T10:57:59.304Z,105.13
2018-12-26T11:00:14.340Z,113.50
2018-12-26T11:02:29.153Z,104.07
2018-12-26T11:04:44.313Z,99.63
2018-12-26T11:06:58.884Z,85.70
2018-12-26T11:09:13.797Z,115.20
2018-12-26T11:11:28.725Z,105.50
2018-12-26T11:13:43.769Z,102.13
2018-12-26T11:15:58.629Z,95.93
2018-12-26T11:18:13.306Z,97.57
2018-12-26T11:20:28.399Z,104.93
2018-12-26T11:22:43.233Z,104.67
2018-12-26T11:24:58.344Z,106.50
2018-12-26T11:27:13.113Z,98.13
2018-12-26T11:29:27.980Z,102.80
2018-12-26T11:31:42.668Z,99.83
2018-12-26T11:33:57.931Z,106.67
2018-12-26T11:36:12.514Z,103.67
2018-12-26T11:38:27.396Z,98.87
2018-12-26T11:40:42.109Z,112.43
2018-12-26T11:42:56.909Z,111.00
2018-12-26T11:45:11.864Z,102.03
2018-12-26T11:47:26.593Z,104.70
2018-12-26T11:49:41.384Z,115.70
2018-12-26T11:51:56.437Z,106.90
2018-12-26T11:54:11.332Z,116.47
2018-12-26T11:56:26.228Z,109.60
2018-12-26T11:58:41.221Z,99.60
2018-12-26T12:00:56.037Z,95.50
2018-12-26T12:03:11.033Z,100.93
2018-12-26T12:05:25.888Z,111.27
2018-12-26T12:07:40.901Z,124.73
2018-12-26T12:09:55.896Z,123.63
2018-12-26T12:12:10.984Z,98.37
2018-12-26T12:14:25.992Z,102.80
2018-12-26T12:16:40.823Z,96.97
2018-12-26T12:18:55.608Z,86.93
2018-12-26T12:21:10.581Z,97.40
2018-12-26T12:23:25.588Z,112.87
2018-12-26T12:25:40.528Z,96.37
2018-12-26T12:27:55.340Z,121.00
2018-12-26T12:30:10.682Z,103.30
2018-12-26T12:32:25.456Z,97.20
2018-12-26T12:34:40.373Z,140.93
2018-12-26T12:36:55.250Z,112.07
2018-12-26T12:39:10.133Z,114.77
2018-12-26T12:41:25.249Z,104.93
2018-12-26T12:43:40.018Z,94.20
2018-12-26T12:45:54.937Z,98.77
2018-12-26T12:48:09.791Z,85.07
2018-12-26T12:50:24.729Z,108.23
2018-12-26T12:52:39.736Z,113.50
2018-12-26T12:54:54.769Z,102.07
2018-12-26T12:57:09.713Z,105.70
2018-12-26T12:59:24.701Z,102.13
2018-12-26T13:01:39.680Z,103.30
2018-12-26T13:03:54.790Z,113.57
2018-12-26T13:06:09.657Z,106.23
2018-12-26T13:08:24.543Z,96.73
2018-12-26T13:10:39.333Z,113.20
2018-12-26T13:12:54.129Z,107.10
2018-12-26T13:15:08.928Z,115.80
2018-12-26T13:17:23.944Z,91.30
2018-12-26T13:19:38.832Z,118.97
2018-12-26T13:21:53.864Z,124.47
2018-12-26T13:26:55.950Z,98.30
2018-12-26T13:29:11.004Z,99.53
2018-12-26T13:31:25.994Z,117.73
2018-12-26T13:33:40.881Z,100.90
2018-12-26T13:35:55.876Z,131.77
2018-12-26T13:38:10.808Z,113.97
2018-12-26T13:40:25.716Z,114.33
2018-12-26T13:42:40.584Z,113.57
2018-12-26T13:44:55.460Z,105.60
2018-12-26T13:47:10.438Z,117.47
2018-12-26T13:49:25.373Z,119.37
2018-12-26T13:57:01.568Z,103.70
2018-12-26T13:59:16.192Z,116.20
2018-12-26T14:01:30.936Z,106.13
2018-12-26T14:03:45.848Z,117.80
2018-12-26T14:05:59.945Z,96.43
2018-12-26T14:08:14.676Z,116.97
2018-12-26T14:10:29.628Z,114.90
2018-12-26T14:12:44.428Z,118.83
2018-12-26T14:14:59.397Z,120.00
2018-12-26T14:17:14.448Z,122.80
2018-12-26T14:19:29.215Z,123.37
2018-12-26T14:21:44.185Z,119.37
2018-12-26T14:23:59.129Z,110.83
2018-12-26T14:26:13.997Z,121.90
2018-12-26T14:28:28.835Z,114.80
2018-12-26T14:30:43.821Z,110.53
2018-12-26T14:32:58.593Z,99.07
2018-12-26T14:35:13.412Z,126.27
2018-12-26T14:37:28.321Z,124.83
2018-12-26T14:39:43.057Z,144.83
2018-12-26T14:41:58.057Z,144.63
2018-12-26T14:44:13.760Z,122.10
2018-12-26T14:46:28.980Z,118.80
2018-12-26T14:48:43.905Z,115.27
2018-12-26T14:50:58.732Z,137.10
2018-12-26T14:53:13.668Z,113.47
2018-12-26T14:55:28.553Z,90.67
2018-12-26T14:57:43.860Z,122.50
2018-12-26T14:59:58.560Z,124.77
2018-12-26T15:02:13.503Z,127.10
2018-12-26T15:04:28.478Z,127.00
2018-12-26T15:06:43.193Z,107.53
2018-12-26T15:11:37.956Z,104.23
2018-12-26T15:13:52.911Z,110.50
2018-12-26T15:16:07.740Z,111.77
2018-12-26T15:18:22.521Z,123.17
2018-12-26T15:20:37.508Z,115.00
2018-12-26T15:22:52.765Z,130.37
2018-12-26T15:25:07.293Z,129.90
2018-12-26T15:27:22.072Z,126.97
2018-12-26T15:29:37.088Z,97.67
2018-12-26T15:31:52.022Z,114.53
2018-12-26T15:34:07.001Z,116.63
2018-12-26T15:36:21.941Z,98.93
2018-12-26T15:38:36.772Z,127.63
2018-12-26T15:40:51.640Z,100.63
2018-12-26T15:43:06.417Z,96.90
2018-12-26T15:45:21.250Z,115.03
2018-12-26T15:47:36.162Z,92.03
2018-12-26T15:49:51.444Z,119.33
2018-12-26T15:52:06.482Z,116.70
2018-12-26T15:54:21.457Z,122.07
2018-12-26T15:56:36.021Z,100.63
2018-12-26T15:58:53.022Z,121.60
2018-12-26T16:01:08.224Z,107.27
2018-12-26T16:03:23.173Z,137.60
2018-12-26T16:05:37.777Z,132.07
2018-12-26T16:07:52.740Z,98.23
2018-12-26T16:10:07.820Z,108.73
2018-12-26T16:12:22.715Z,122.20
2018-12-26T16:14:37.560Z,136.50
2018-12-26T16:16:52.541Z,124.17
2018-12-26T16:19:07.524Z,125.70
2018-12-26T16:21:22.808Z,124.00
2018-12-26T16:23:37.313Z,127.97
2018-12-26T16:25:52.336Z,123.93
2018-12-26T16:28:07.318Z,136.50
2018-12-26T16:30:21.497Z,126.90
2018-12-26T16:32:36.200Z,122.90
2018-12-26T16:34:51.100Z,113.50
2018-12-26T16:37:05.825Z,136.07
2018-12-26T16:39:20.849Z,126.63
2018-12-26T16:41:35.988Z,121.20
2018-12-26T16:43:50.648Z,109.40
2018-12-26T16:46:05.529Z,102.80
2018-12-26T16:48:20.360Z,133.93
2018-12-26T16:50:35.406Z,110.57
2018-12-26T16:52:50.480Z,111.63
2018-12-26T16:55:05.365Z,102.43
2018-12-26T16:57:19.469Z,107.73
2018-12-26T16:59:34.191Z,112.57
2018-12-26T17:01:49.204Z,114.23
2018-12-26T17:04:04.228Z,98.67
2018-12-26T17:06:19.112Z,104.30
2018-12-26T17:08:33.864Z,127.47
2018-12-26T17:10:49.033Z,116.60
2018-12-26T17:13:04.108Z,128.53
2018-12-26T17:15:19.258Z,113.70
2018-12-26T17:17:38.200Z,114.53
2018-12-26T17:19:52.984Z,104.17
2018-12-26T17:22:07.955Z,104.10
2018-12-26T17:24:22.777Z,111.60
2018-12-26T17:26:37.749Z,127.23
2018-12-26T17:28:52.597Z,113.83
2018-12-26T17:31:07.450Z,108.00
2018-12-26T17:33:22.104Z,86.80
2018-12-26T17:35:37.140Z,110.00
2018-12-26T17:37:52.025Z,102.57
2018-12-26T17:40:06.881Z,101.37
2018-12-26T17:42:21.762Z,112.90
2018-12-26T17:44:36.844Z,100.50
2018-12-26T17:46:51.491Z,99.37
2018-12-26T17:49:06.439Z,107.57
2018-12-26T17:51:21.397Z,91.13
2018-12-26T17:53:36.176Z,111.67
2018-12-26T17:55:51.180Z,110.37
2018-12-26T17:58:05.778Z,105.07
2018-12-26T18:00:20.528Z,102.53
2018-12-26T18:02:35.625Z,103.90
2018-12-26T18:04:50.284Z,79.07
2018-12-26T18:07:05.272Z,93.10
2018-12-26T18:12:11.721Z,91.43
2018-12-26T18:14:24.049Z,71.53
2018-12-26T18:16:39.076Z,80.93
2018-12-26T18:18:53.788Z,84.60
2018-12-26T18:21:08.771Z,81.40
2018-12-26T18:23:23.002Z,82.07
2018-12-26T18:25:37.963Z,92.87
2018-12-26T18:27:52.962Z,91.77
2018-12-26T18:30:07.981Z,65.70
2018-12-26T18:32:22.800Z,83.43
2018-12-26T18:34:38.017Z,80.43
2018-12-26T18:39:32.780Z,75.37
2018-12-26T18:41:47.660Z,70.70
2018-12-26T18:44:02.543Z,86.30
2018-12-26T18:46:17.604Z,96.07
2018-12-26T18:48:32.546Z,77.33
2018-12-26T18:50:47.409Z,76.80
2018-12-26T18:53:02.277Z,80.23
2018-12-26T18:55:17.188Z,87.80
2018-12-26T18:57:31.537Z,75.77
2018-12-26T18:59:46.092Z,70.27
2018-12-26T19:02:01.029Z,72.10
2018-12-26T19:04:15.861Z,59.90
2018-12-26T19:06:30.752Z,76.70
2018-12-26T19:08:45.613Z,69.60
2018-12-26T19:11:00.573Z,71.00
2018-12-26T19:13:15.464Z,73.63
2018-12-26T19:15:30.192Z,61.53
2018-12-26T19:17:45.264Z,70.23
2018-12-26T19:20:00.004Z,64.47
2018-12-26T19:22:14.585Z,61.40
2018-12-26T19:24:29.320Z,70.57
2018-12-26T19:26:43.548Z,74.47
2018-12-26T19:28:58.460Z,49.87
2018-12-26T19:31:13.500Z,51.80
2018-12-26T19:33:29.781Z,57.90
2018-12-26T19:35:44.440Z,54.40
2018-12-26T19:37:59.528Z,54.20
2018-12-26T19:40:14.157Z,62.07
2018-12-26T19:42:37.149Z,60.63
2018-12-26T19:44:45.168Z,65.20
2018-12-26T19:47:00.305Z,55.97
2018-12-26T19:49:15.117Z,53.13
2018-12-26T19:51:30.056Z,51.07
2018-12-26T19:53:44.936Z,50.90
2018-12-26T19:56:00.132Z,57.60
2018-12-26T19:58:14.740Z,54.17
2018-12-26T20:00:29.465Z,50.27
2018-12-26T20:08:01.189Z,51.53
2018-12-26T20:10:16.184Z,48.27
2018-12-26T20:12:31.105Z,53.53
2018-12-26T20:14:46.004Z,55.57
2018-12-26T20:17:00.929Z,60.60
2018-12-26T20:19:15.809Z,51.03
2018-12-26T20:21:30.610Z,56.47
2018-12-26T20:23:45.598Z,51.10
2018-12-26T20:26:00.728Z,54.70
2018-12-26T20:28:15.698Z,50.43
2018-12-26T20:30:30.437Z,56.83
2018-12-26T20:32:45.570Z,62.83
2018-12-26T20:35:00.291Z,56.50
2018-12-26T20:37:14.977Z,63.27
2018-12-26T20:39:30.196Z,57.03
2018-12-26T20:41:45.217Z,54.50
2018-12-26T20:44:00.217Z,62.20
2018-12-26T20:46:15.078Z,59.07
2018-12-26T20:48:30.257Z,54.93
2018-12-26T20:50:45.138Z,51.93
2018-12-26T20:53:00.192Z,63.70
2018-12-26T20:55:15.272Z,61.03
2018-12-26T20:57:30.253Z,75.27
2018-12-26T20:59:45.767Z,72.57
2018-12-26T21:02:05.634Z,69.37
2018-12-26T21:04:17.165Z,76.67
2018-12-26T21:06:32.221Z,75.53
2018-12-26T21:08:47.188Z,77.27
2018-12-26T21:11:02.061Z,70.23
2018-12-26T21:13:17.020Z,69.27
2018-12-26T21:15:32.112Z,71.40
2018-12-26T21:20:34.097Z,68.73
2018-12-26T21:22:48.957Z,73.47
2018-12-26T21:25:03.932Z,74.77
2018-12-26T21:27:18.528Z,73.03
2018-12-26T21:29:33.704Z,68.27
2018-12-26T21:31:48.364Z,90.43
2018-12-26T21:34:03.218Z,94.90
2018-12-26T21:36:18.249Z,79.53
2018-12-26T21:38:33.128Z,100.67
2018-12-26T21:40:47.953Z,104.40
2018-12-26T21:43:02.782Z,99.10
2018-12-26T21:45:17.633Z,109.70
2018-12-26T21:47:32.521Z,103.87
2018-12-26T21:49:47.756Z,100.37
2018-12-26T21:52:02.389Z,85.10
2018-12-26T21:54:17.209Z,86.47
2018-12-26T21:56:32.133Z,82.13
2018-12-26T21:58:47.357Z,96.40
2018-12-26T22:01:02.226Z,95.40
2018-12-26T22:03:17.101Z,76.83
2018-12-26T22:05:32.027Z,62.60
2018-12-26T22:07:46.953Z,78.53
2018-12-26T22:10:01.696Z,71.03
2018-12-26T22:12:16.708Z,75.77
2018-12-26T22:14:31.788Z,59.03
2018-12-26T22:16:46.352Z,65.77
2018-12-26T22:19:01.372Z,76.43
2018-12-26T22:21:16.324Z,66.63
2018-12-26T22:23:31.077Z,69.13
2018-12-26T22:25:46.116Z,70.97
2018-12-26T22:28:01.204Z,67.50
2018-12-26T22:30:15.992Z,75.20
2018-12-26T22:32:31.062Z,63.43
2018-12-26T22:34:45.765Z,74.27
2018-12-26T22:37:00.833Z,78.53
2018-12-26T22:39:15.721Z,58.50
2018-12-26T22:41:30.737Z,67.53
2018-12-26T22:43:45.520Z,75.33
2018-12-26T22:46:00.340Z,76.10
2018-12-26T22:48:15.708Z,71.07
2018-12-26T22:50:30.655Z,73.37
2018-12-26T22:52:45.725Z,70.27
2018-12-26T22:55:00.372Z,65.03
2018-12-26T22:57:15.381Z,78.27
2018-12-26T22:59:30.260Z,73.37
2018-12-26T23:01:45.140Z,69.53
2018-12-26T23:04:00.324Z,87.27
2018-12-26T23:06:14.881Z,88.53
2018-12-26T23:08:29.997Z,77.80
2018-12-26T23:10:44.921Z,78.43
2018-12-26T23:13:00.110Z,76.23
2018-12-26T23:15:14.634Z,86.43
2018-12-26T23:17:29.240Z,91.77
2018-12-26T23:19:44.200Z,97.53
2018-12-26T23:21:59.149Z,103.00
2018-12-26T23:24:13.969Z,96.30
2018-12-26T23:26:28.817Z,112.60
2018-12-26T23:28:43.936Z,94.87
2018-12-26T23:30:58.658Z,109.17
2018-12-26T23:33:13.624Z,105.00
2018-12-26T23:35:28.636Z,110.27
2018-12-26T23:37:43.556Z,120.30
2018-12-26T23:39:58.556Z,115.30
2018-12-26T23:42:13.320Z,113.00
2018-12-26T23:44:28.237Z,116.53
2018-12-26T23:46:43.166Z,100.93
2018-12-26T23:48:58.165Z,108.73
2018-12-26T23:51:12.969Z,95.43
2018-12-26T23:53:27.888Z,95.30
2018-12-26T23:55:42.845Z,79.60
2018-12-26T23:57:57.788Z,90.83
